• Join FlightAware (Why Join?)
  • Login
  • US Flag 
07:41AM EDT


 

Airport Tracker/Info


-or-


 

Live Flight TrackerFlight Track Log ✈ SWA1446 ✈ 05-May-2013 ✈ KBWI - KPWM

Flight Track Log - Related Links

Times and Time Zones

All times are in EDT time to prevent confusion due to time zone crossing. See the SWA1446 flight status page for this flight to view local times or setup timezone preferences in your user account.

Time Position Orientation Groundspeed Altitude Reporting Facility
EDT Latitude Longitude Course Direction KTS MPH feet Rate Location/Type
03:58PM 39.1008 -76.6161 284° West 181 208 4,000  Level Washington Center
03:59PM 39.0889 -76.5436 102° East 191 220 6,700 3,060 Climbing Washington Center
04:01PM 39.1278 -76.3408 76° East 241 277 13,100 3,240 Climbing Washington Center
04:02PM 39.1492 -76.2233 77° East 312 359 16,400 2,760 Climbing Washington Center
04:03PM 39.1605 -76.6025 284° West  Level FlightAware Approximate
04:03PM 39.1667 -76.1056 79° East 346 398 18,700  Level Washington Center
04:04PM 39.1817 -75.9719 82° East 364 419 21,300 2,460 Climbing Washington Center
04:05PM 39.2194 -75.8461 69° East 371 427 23,700 2,340 Climbing Washington Center
04:06PM 39.2989 -75.7444 45° Northeast 371 427 26,000 2,040 Climbing Washington Center
04:07PM 39.3781 -75.6400 46° Northeast 386 444 27,800 1,620 Climbing Washington Center
04:08PM 39.4636 -75.5297 45° Northeast 409 471 29,300 1,560 Climbing Washington Center
04:09PM 39.5508 -75.4167 45° Northeast 426 490 31,000 1,620 Climbing Washington Center
04:11PM 39.7664 -75.1217 46° Northeast 451 519 35,000 1,140 Climbing New York Center
04:12PM 39.8436 -75.0103 48° Northeast 434 499 35,000  Level New York Center
04:13PM 39.9247 -74.8961 47° Northeast 423 487 35,000  Level New York Center
04:14PM 40.0078 -74.7872 45° Northeast 432 497 35,000  Level New York Center
04:15PM 40.0867 -74.6722 48° Northeast 426 490 35,000  Level New York Center
04:16PM 40.1631 -74.5597 48° Northeast 419 482 35,000  Level New York Center
04:17PM 40.2372 -74.4606 46° Northeast 419 482 35,000  Level New York Center
04:18PM 40.3278 -74.3619 40° Northeast 414 476 35,000  Level New York Center
04:19PM 40.4161 -74.2631 40° Northeast 414 476 35,000  Level New York Center
04:22PM 40.5931 -74.0089 47° Northeast 416 479 35,000  Level Boston Center
04:23PM 40.6675 -73.8931 50° Northeast 416 479 35,000  Level Boston Center
04:24PM 40.7442 -73.7742 50° Northeast 416 479 35,000  Level Boston Center
04:25PM 40.8161 -73.6550 51° Northeast 416 479 35,000  Level Boston Center
04:26PM 40.8903 -73.5411 49° Northeast 411 473 35,000  Level Boston Center
04:27PM 40.9644 -73.4269 49° Northeast 406 467 35,000 -480 Level Boston Center
04:28PM 41.0361 -73.3206 48° Northeast 400 460 34,100 -960 Descending Boston Center
04:29PM 41.1100 -73.2058 49° Northeast 394 453 33,100 -960 Descending Boston Center
04:30PM 41.1772 -73.0881 53° Northeast 400 460 32,200 -960 Descending Boston Center
04:31PM 41.2364 -72.9617 58° Northeast 400 460 31,200 -600 Descending Boston Center
04:32PM 41.2908 -72.8489 57° Northeast 400 460 31,000 -120 Descending Boston Center
04:33PM 41.3517 -72.7194 58° Northeast 400 460 31,000  Level Boston Center
04:34PM 41.4125 -72.5894 58° Northeast 410 472 31,000  Level Boston Center
04:35PM 41.4689 -72.4622 59° Northeast 410 472 31,000  Level Boston Center
04:36PM 41.5272 -72.3319 59° Northeast 410 472 31,000  Level Boston Center
04:37PM 41.5936 -72.1931 57° Northeast 410 472 31,000  Level Boston Center
04:38PM 41.6517 -72.0650 59° Northeast 410 472 31,000  Level Boston Center
04:39PM 41.7114 -71.9339 59° Northeast 410 472 31,000  Level Boston Center
04:40PM 41.7714 -71.8028 58° Northeast 410 472 31,000  Level Boston Center
04:42PM 41.8861 -71.5394 60° Northeast 410 472 31,000  Level Boston Center
04:43PM 41.9350 -71.4019 64° Northeast 410 472 31,000  Level Boston Center
04:44PM 42.0047 -71.2778 53° Northeast 410 472 31,000  Level Boston Center
04:45PM 42.0933 -71.1756 41° Northeast 401 461 31,000 -240 Level Boston Center
04:46PM 42.1817 -71.0756 40° Northeast 406 467 30,600 -1,320 Descending Boston Center
04:47PM 42.2658 -70.9756 41° Northeast 412 474 28,400 -2,280 Descending Boston Center
04:48PM 42.3522 -70.8753 41° Northeast 405 466 26,100 -2,160 Descending Boston Center
04:49PM 42.4319 -70.7806 41° Northeast 395 455 24,100 -1,080 Descending Boston Center
04:50PM 42.5333 -70.7214 23° Northeast 389 448 24,000 -660 Descending Boston Center
04:51PM 42.6367 -70.6650 22° Northeast 384 442 22,800 -1,680 Descending Boston Center
04:52PM 42.7358 -70.6056 24° Northeast 390 449 20,700 -2,040 Descending Boston Center
04:53PM 42.8286 -70.5489 24° Northeast 385 443 18,800 -1,800 Descending Boston Center
04:54PM 42.9111 -70.4953 25° Northeast 363 418 17,100 -2,100 Descending Boston Center
04:55PM 43.0119 -70.4297 25° Northeast 363 418 14,600 -2,220 Descending Boston Center
04:56PM 43.0900 -70.3647 31° Northeast 358 412 12,700 -1,860 Descending Boston Center
04:57PM 43.1803 -70.2875 32° Northeast 352 405 10,900 -1,320 Descending Boston Center
04:58PM 43.2461 -70.2311 32° Northeast 318 366 10,100 -1,380 Descending Boston Center
04:59PM 43.3289 -70.2108 10° North 277 319 8,200 -1,920 Descending Boston Center
05:00PM 43.3997 -70.2056 North 277 319 6,300 -1,800 Descending Boston Center
05:01PM 43.4808 -70.1911 North 272 313 4,700 -1,380 Descending Boston Center
05:02PM 43.5450 -70.1742 11° North 267 307 3,600 -960 Descending Boston Center
05:03PM 43.6075 -70.1661 North 257 296 2,800 -780 Descending Boston Center
05:04PM 43.6519 -70.2047 328° Northwest 178 205 2,100 -1,080 Descending Boston Center
05:05PM 43.6486 -70.2564 265° West 125 144 700 4,440 Descending Boston Center
05:06PM 43.6453 -70.2997 264° West 125 144 11,000 5,100 Climbing Boston Center
05:07PM 43.6464 -70.3542 272° West 125 144 11,000  Level Boston Center
05:08PM 43.6472 -70.4058 271° West 125 144 11,000  Level Boston Center
05:10PM 43.6492 -70.5061 272° West 125 144 11,000  Level Boston Center
05:12PM 43.6333 -70.3000 101° East  Level FlightAware Approximate
05:19PM 43.6456 -70.3086 101° East  Level Estimated
05:20PM 43.6456 -70.3086 101° East  Level Estimated
05:21PM 43.6456 -70.3086 101° East  Level Estimated